sensor_id;sensor_type;location;lat;lon;timestamp;P1;durP1;ratioP1;P2;durP2;ratioP2
27758;SDS011;15148;48.972;12.794;2022-12-18T00:04:42;25.77;;;12.25;;
27758;SDS011;15148;48.972;12.794;2022-12-18T00:09:44;23.80;;;13.25;;
27758;SDS011;15148;48.972;12.794;2022-12-18T00:14:46;31.50;;;14.15;;
27758;SDS011;15148;48.972;12.794;2022-12-18T00:19:48;24.33;;;11.93;;
27758;SDS011;15148;48.972;12.794;2022-12-18T00:24:50;23.33;;;12.48;;
27758;SDS011;15148;48.972;12.794;2022-12-18T00:29:51;25.83;;;13.10;;
27758;SDS011;15148;48.972;12.794;2022-12-18T00:34:53;25.40;;;13.02;;
27758;SDS011;15148;48.972;12.794;2022-12-18T00:39:55;20.50;;;11.77;;
27758;SDS011;15148;48.972;12.794;2022-12-18T00:44:57;27.50;;;12.95;;
27758;SDS011;15148;48.972;12.794;2022-12-18T00:49:58;20.55;;;12.23;;
27758;SDS011;15148;48.972;12.794;2022-12-18T00:55:00;32.70;;;15.02;;
27758;SDS011;15148;48.972;12.794;2022-12-18T01:00:07;27.87;;;14.30;;
27758;SDS011;15148;48.972;12.794;2022-12-18T01:05:11;27.45;;;12.43;;
27758;SDS011;15148;48.972;12.794;2022-12-18T01:10:14;24.42;;;12.68;;
27758;SDS011;15148;48.972;12.794;2022-12-18T01:15:16;21.70;;;11.57;;
27758;SDS011;15148;48.972;12.794;2022-12-18T01:20:18;15.63;;;9.02;;
27758;SDS011;15148;48.972;12.794;2022-12-18T01:25:20;12.70;;;7.05;;
27758;SDS011;15148;48.972;12.794;2022-12-18T01:30:25;19.20;;;10.07;;
27758;SDS011;15148;48.972;12.794;2022-12-18T01:35:26;12.57;;;6.22;;
27758;SDS011;15148;48.972;12.794;2022-12-18T01:40:28;8.45;;;5.30;;
27758;SDS011;15148;48.972;12.794;2022-12-18T01:45:31;7.13;;;4.50;;
27758;SDS011;15148;48.972;12.794;2022-12-18T01:55:38;9.60;;;5.32;;
27758;SDS011;15148;48.972;12.794;2022-12-18T02:01:12;15.73;;;7.50;;
27758;SDS011;15148;48.972;12.794;2022-12-18T02:06:32;24.83;;;10.77;;
27758;SDS011;15148;48.972;12.794;2022-12-18T02:11:46;25.08;;;10.95;;
27758;SDS011;15148;48.972;12.794;2022-12-18T02:17:07;19.90;;;10.95;;
27758;SDS011;15148;48.972;12.794;2022-12-18T02:27:39;16.88;;;8.77;;
27758;SDS011;15148;48.972;12.794;2022-12-18T02:32:49;14.23;;;7.63;;
27758;SDS011;15148;48.972;12.794;2022-12-18T02:37:53;14.60;;;8.27;;
27758;SDS011;15148;48.972;12.794;2022-12-18T02:43:01;21.08;;;9.80;;
27758;SDS011;15148;48.972;12.794;2022-12-18T02:48:08;17.20;;;8.45;;
27758;SDS011;15148;48.972;12.794;2022-12-18T02:53:14;16.98;;;7.75;;
27758;SDS011;15148;48.972;12.794;2022-12-18T02:58:37;21.23;;;10.35;;
27758;SDS011;15148;48.972;12.794;2022-12-18T03:03:51;16.48;;;8.48;;
27758;SDS011;15148;48.972;12.794;2022-12-18T03:09:06;23.45;;;9.90;;
27758;SDS011;15148;48.972;12.794;2022-12-18T03:14:12;23.75;;;12.05;;
27758;SDS011;15148;48.972;12.794;2022-12-18T03:19:18;15.77;;;8.63;;
27758;SDS011;15148;48.972;12.794;2022-12-18T03:24:26;21.10;;;10.27;;
27758;SDS011;15148;48.972;12.794;2022-12-18T03:29:38;15.43;;;8.93;;
27758;SDS011;15148;48.972;12.794;2022-12-18T03:40:07;20.50;;;10.00;;
27758;SDS011;15148;48.972;12.794;2022-12-18T03:45:12;21.67;;;10.10;;
27758;SDS011;15148;48.972;12.794;2022-12-18T03:55:42;22.05;;;9.75;;
27758;SDS011;15148;48.972;12.794;2022-12-18T04:00:45;14.55;;;8.18;;
27758;SDS011;15148;48.972;12.794;2022-12-18T04:05:50;20.92;;;10.52;;
27758;SDS011;15148;48.972;12.794;2022-12-18T04:10:56;22.98;;;10.85;;
27758;SDS011;15148;48.972;12.794;2022-12-18T04:15:59;26.95;;;11.88;;
27758;SDS011;15148;48.972;12.794;2022-12-18T04:21:02;25.63;;;10.70;;
27758;SDS011;15148;48.972;12.794;2022-12-18T04:26:04;26.55;;;12.13;;
27758;SDS011;15148;48.972;12.794;2022-12-18T04:31:18;25.88;;;12.73;;
27758;SDS011;15148;48.972;12.794;2022-12-18T04:36:21;21.45;;;10.48;;
27758;SDS011;15148;48.972;12.794;2022-12-18T04:41:23;20.85;;;9.98;;
27758;SDS011;15148;48.972;12.794;2022-12-18T04:46:27;12.23;;;7.82;;
27758;SDS011;15148;48.972;12.794;2022-12-18T04:51:28;19.95;;;10.52;;
27758;SDS011;15148;48.972;12.794;2022-12-18T04:56:31;23.33;;;11.15;;
27758;SDS011;15148;48.972;12.794;2022-12-18T05:01:33;25.67;;;10.75;;
27758;SDS011;15148;48.972;12.794;2022-12-18T05:06:37;21.30;;;9.88;;
27758;SDS011;15148;48.972;12.794;2022-12-18T05:11:38;14.48;;;8.25;;
27758;SDS011;15148;48.972;12.794;2022-12-18T05:16:40;15.73;;;8.07;;
27758;SDS011;15148;48.972;12.794;2022-12-18T05:21:42;12.20;;;6.97;;
27758;SDS011;15148;48.972;12.794;2022-12-18T05:26:44;9.60;;;5.20;;
27758;SDS011;15148;48.972;12.794;2022-12-18T05:31:46;10.35;;;5.68;;
27758;SDS011;15148;48.972;12.794;2022-12-18T05:36:48;6.65;;;4.50;;
27758;SDS011;15148;48.972;12.794;2022-12-18T05:41:49;11.18;;;7.25;;
27758;SDS011;15148;48.972;12.794;2022-12-18T05:46:51;10.32;;;5.35;;
27758;SDS011;15148;48.972;12.794;2022-12-18T05:51:53;11.63;;;6.03;;
27758;SDS011;15148;48.972;12.794;2022-12-18T05:56:55;20.27;;;9.80;;
27758;SDS011;15148;48.972;12.794;2022-12-18T06:01:56;20.63;;;9.63;;
27758;SDS011;15148;48.972;12.794;2022-12-18T06:06:59;20.95;;;11.27;;
27758;SDS011;15148;48.972;12.794;2022-12-18T06:12:00;43.17;;;12.32;;
27758;SDS011;15148;48.972;12.794;2022-12-18T06:17:02;11.77;;;6.53;;
27758;SDS011;15148;48.972;12.794;2022-12-18T06:22:04;17.17;;;8.25;;
27758;SDS011;15148;48.972;12.794;2022-12-18T06:27:05;10.98;;;6.63;;
27758;SDS011;15148;48.972;12.794;2022-12-18T06:32:07;12.32;;;6.60;;
27758;SDS011;15148;48.972;12.794;2022-12-18T06:37:09;8.35;;;4.35;;
27758;SDS011;15148;48.972;12.794;2022-12-18T06:42:11;10.88;;;5.53;;
27758;SDS011;15148;48.972;12.794;2022-12-18T06:47:13;10.25;;;6.35;;
27758;SDS011;15148;48.972;12.794;2022-12-18T06:52:15;8.27;;;4.13;;
27758;SDS011;15148;48.972;12.794;2022-12-18T06:57:17;10.10;;;6.03;;
27758;SDS011;15148;48.972;12.794;2022-12-18T07:02:19;13.02;;;5.47;;
27758;SDS011;15148;48.972;12.794;2022-12-18T07:07:21;8.45;;;4.18;;
27758;SDS011;15148;48.972;12.794;2022-12-18T07:12:22;9.75;;;4.10;;
27758;SDS011;15148;48.972;12.794;2022-12-18T07:17:24;8.20;;;4.53;;
27758;SDS011;15148;48.972;12.794;2022-12-18T07:22:26;12.93;;;6.72;;
27758;SDS011;15148;48.972;12.794;2022-12-18T07:27:28;14.45;;;8.23;;
27758;SDS011;15148;48.972;12.794;2022-12-18T07:32:30;20.98;;;9.00;;
27758;SDS011;15148;48.972;12.794;2022-12-18T07:37:32;21.35;;;9.75;;
27758;SDS011;15148;48.972;12.794;2022-12-18T07:42:33;13.13;;;6.93;;
27758;SDS011;15148;48.972;12.794;2022-12-18T07:47:36;17.33;;;8.18;;
27758;SDS011;15148;48.972;12.794;2022-12-18T07:52:38;16.65;;;8.30;;
27758;SDS011;15148;48.972;12.794;2022-12-18T07:57:40;16.08;;;7.97;;
27758;SDS011;15148;48.972;12.794;2022-12-18T08:02:51;24.27;;;10.48;;
27758;SDS011;15148;48.972;12.794;2022-12-18T08:07:53;23.13;;;11.38;;
27758;SDS011;15148;48.972;12.794;2022-12-18T08:12:55;25.23;;;11.70;;
27758;SDS011;15148;48.972;12.794;2022-12-18T08:18:04;36.40;;;13.13;;
27758;SDS011;15148;48.972;12.794;2022-12-18T08:23:12;29.30;;;13.23;;
27758;SDS011;15148;48.972;12.794;2022-12-18T08:28:17;30.63;;;13.60;;
27758;SDS011;15148;48.972;12.794;2022-12-18T08:33:19;31.25;;;12.75;;
27758;SDS011;15148;48.972;12.794;2022-12-18T08:38:21;44.90;;;13.98;;
27758;SDS011;15148;48.972;12.794;2022-12-18T08:43:24;26.30;;;12.90;;
27758;SDS011;15148;48.972;12.794;2022-12-18T08:48:44;23.52;;;12.95;;
27758;SDS011;15148;48.972;12.794;2022-12-18T08:53:46;29.40;;;14.65;;
27758;SDS011;15148;48.972;12.794;2022-12-18T08:58:50;23.75;;;10.95;;
27758;SDS011;15148;48.972;12.794;2022-12-18T09:03:54;26.48;;;14.43;;
27758;SDS011;15148;48.972;12.794;2022-12-18T09:08:56;196.65;;;88.50;;
27758;SDS011;15148;48.972;12.794;2022-12-18T09:13:59;30.55;;;15.18;;
27758;SDS011;15148;48.972;12.794;2022-12-18T09:19:02;26.80;;;13.38;;
27758;SDS011;15148;48.972;12.794;2022-12-18T09:24:05;23.35;;;12.38;;
27758;SDS011;15148;48.972;12.794;2022-12-18T09:29:09;28.35;;;15.10;;
27758;SDS011;15148;48.972;12.794;2022-12-18T09:34:10;25.73;;;13.63;;
27758;SDS011;15148;48.972;12.794;2022-12-18T09:39:12;28.13;;;13.95;;
27758;SDS011;15148;48.972;12.794;2022-12-18T09:44:22;24.65;;;13.55;;
27758;SDS011;15148;48.972;12.794;2022-12-18T09:49:27;25.55;;;12.93;;
27758;SDS011;15148;48.972;12.794;2022-12-18T09:54:36;26.83;;;12.82;;
27758;SDS011;15148;48.972;12.794;2022-12-18T09:59:41;28.17;;;14.68;;
27758;SDS011;15148;48.972;12.794;2022-12-18T10:04:46;29.27;;;15.48;;
27758;SDS011;15148;48.972;12.794;2022-12-18T10:10:24;29.73;;;17.58;;
27758;SDS011;15148;48.972;12.794;2022-12-18T10:15:35;26.42;;;13.95;;
27758;SDS011;15148;48.972;12.794;2022-12-18T10:20:51;25.70;;;13.82;;
27758;SDS011;15148;48.972;12.794;2022-12-18T10:26:03;26.27;;;14.40;;
27758;SDS011;15148;48.972;12.794;2022-12-18T10:31:07;24.70;;;13.05;;
27758;SDS011;15148;48.972;12.794;2022-12-18T10:36:14;24.63;;;14.45;;
27758;SDS011;15148;48.972;12.794;2022-12-18T10:46:27;28.33;;;15.93;;
27758;SDS011;15148;48.972;12.794;2022-12-18T10:51:30;22.05;;;12.68;;
27758;SDS011;15148;48.972;12.794;2022-12-18T10:56:37;27.83;;;15.13;;
27758;SDS011;15148;48.972;12.794;2022-12-18T11:01:47;27.73;;;14.63;;
27758;SDS011;15148;48.972;12.794;2022-12-18T11:06:59;24.77;;;14.00;;
27758;SDS011;15148;48.972;12.794;2022-12-18T11:12:19;30.23;;;15.70;;
27758;SDS011;15148;48.972;12.794;2022-12-18T11:17:31;35.33;;;19.85;;
27758;SDS011;15148;48.972;12.794;2022-12-18T11:22:36;26.80;;;13.48;;
27758;SDS011;15148;48.972;12.794;2022-12-18T11:27:39;27.70;;;15.45;;
27758;SDS011;15148;48.972;12.794;2022-12-18T11:32:45;30.60;;;15.18;;
27758;SDS011;15148;48.972;12.794;2022-12-18T11:37:54;25.38;;;14.57;;
27758;SDS011;15148;48.972;12.794;2022-12-18T11:43:02;26.92;;;14.57;;
27758;SDS011;15148;48.972;12.794;2022-12-18T11:48:17;32.00;;;16.35;;
27758;SDS011;15148;48.972;12.794;2022-12-18T11:53:31;28.48;;;15.35;;
27758;SDS011;15148;48.972;12.794;2022-12-18T12:03:39;31.02;;;16.00;;
27758;SDS011;15148;48.972;12.794;2022-12-18T12:09:17;32.53;;;16.55;;
27758;SDS011;15148;48.972;12.794;2022-12-18T12:30:20;29.85;;;16.95;;
27758;SDS011;15148;48.972;12.794;2022-12-18T12:35:44;26.48;;;14.85;;
27758;SDS011;15148;48.972;12.794;2022-12-18T12:41:01;31.75;;;18.00;;
27758;SDS011;15148;48.972;12.794;2022-12-18T12:46:10;28.50;;;16.53;;
27758;SDS011;15148;48.972;12.794;2022-12-18T12:51:25;29.58;;;16.63;;
27758;SDS011;15148;48.972;12.794;2022-12-18T12:56:35;24.30;;;14.90;;
27758;SDS011;15148;48.972;12.794;2022-12-18T13:01:52;25.33;;;14.68;;
27758;SDS011;15148;48.972;12.794;2022-12-18T13:12:20;21.15;;;13.68;;
27758;SDS011;15148;48.972;12.794;2022-12-18T13:17:40;22.60;;;13.13;;
27758;SDS011;15148;48.972;12.794;2022-12-18T13:22:43;20.45;;;12.13;;
27758;SDS011;15148;48.972;12.794;2022-12-18T13:38:23;26.15;;;14.82;;
27758;SDS011;15148;48.972;12.794;2022-12-18T13:43:32;28.42;;;14.95;;
27758;SDS011;15148;48.972;12.794;2022-12-18T13:59:38;27.42;;;15.43;;
27758;SDS011;15148;48.972;12.794;2022-12-18T14:04:44;26.70;;;16.15;;
27758;SDS011;15148;48.972;12.794;2022-12-18T14:09:51;31.33;;;18.58;;
27758;SDS011;15148;48.972;12.794;2022-12-18T14:15:23;32.15;;;16.90;;
27758;SDS011;15148;48.972;12.794;2022-12-18T14:20:33;38.33;;;17.23;;
27758;SDS011;15148;48.972;12.794;2022-12-18T14:25:35;30.48;;;17.17;;
27758;SDS011;15148;48.972;12.794;2022-12-18T14:30:38;34.03;;;18.15;;
27758;SDS011;15148;48.972;12.794;2022-12-18T14:41:13;30.33;;;16.75;;
27758;SDS011;15148;48.972;12.794;2022-12-18T14:51:37;26.17;;;15.85;;
27758;SDS011;15148;48.972;12.794;2022-12-18T14:57:22;27.13;;;15.45;;
27758;SDS011;15148;48.972;12.794;2022-12-18T15:02:15;24.75;;;14.63;;
27758;SDS011;15148;48.972;12.794;2022-12-18T15:07:24;32.60;;;16.58;;
27758;SDS011;15148;48.972;12.794;2022-12-18T15:12:32;29.63;;;15.40;;
27758;SDS011;15148;48.972;12.794;2022-12-18T15:18:00;42.15;;;21.60;;
27758;SDS011;15148;48.972;12.794;2022-12-18T15:23:05;27.58;;;14.52;;
27758;SDS011;15148;48.972;12.794;2022-12-18T15:28:49;26.40;;;15.45;;
27758;SDS011;15148;48.972;12.794;2022-12-18T15:38:54;26.73;;;13.73;;
27758;SDS011;15148;48.972;12.794;2022-12-18T15:44:21;23.52;;;14.23;;
27758;SDS011;15148;48.972;12.794;2022-12-18T15:49:24;29.65;;;15.55;;
27758;SDS011;15148;48.972;12.794;2022-12-18T15:54:26;37.53;;;18.17;;
27758;SDS011;15148;48.972;12.794;2022-12-18T15:59:46;23.65;;;13.20;;
27758;SDS011;15148;48.972;12.794;2022-12-18T16:04:49;37.08;;;18.23;;
27758;SDS011;15148;48.972;12.794;2022-12-18T16:09:52;34.55;;;17.48;;
27758;SDS011;15148;48.972;12.794;2022-12-18T16:14:55;26.15;;;14.57;;
27758;SDS011;15148;48.972;12.794;2022-12-18T16:19:57;25.30;;;15.40;;
27758;SDS011;15148;48.972;12.794;2022-12-18T16:24:59;26.77;;;14.52;;
27758;SDS011;15148;48.972;12.794;2022-12-18T16:30:01;32.47;;;16.40;;
27758;SDS011;15148;48.972;12.794;2022-12-18T16:35:03;30.60;;;15.73;;
27758;SDS011;15148;48.972;12.794;2022-12-18T16:40:09;38.38;;;18.77;;
27758;SDS011;15148;48.972;12.794;2022-12-18T16:45:15;43.63;;;19.92;;
27758;SDS011;15148;48.972;12.794;2022-12-18T16:50:17;31.45;;;15.38;;
27758;SDS011;15148;48.972;12.794;2022-12-18T16:55:19;22.48;;;12.82;;
27758;SDS011;15148;48.972;12.794;2022-12-18T17:00:21;26.00;;;13.30;;
27758;SDS011;15148;48.972;12.794;2022-12-18T17:05:22;21.15;;;11.90;;
27758;SDS011;15148;48.972;12.794;2022-12-18T17:10:24;26.00;;;13.20;;
27758;SDS011;15148;48.972;12.794;2022-12-18T17:15:26;22.33;;;11.00;;
27758;SDS011;15148;48.972;12.794;2022-12-18T17:20:29;19.65;;;11.20;;
27758;SDS011;15148;48.972;12.794;2022-12-18T17:25:31;26.23;;;14.07;;
27758;SDS011;15148;48.972;12.794;2022-12-18T17:30:33;26.42;;;14.63;;
27758;SDS011;15148;48.972;12.794;2022-12-18T17:35:34;21.92;;;12.85;;
27758;SDS011;15148;48.972;12.794;2022-12-18T17:40:37;23.17;;;14.10;;
27758;SDS011;15148;48.972;12.794;2022-12-18T17:45:46;26.08;;;14.77;;
27758;SDS011;15148;48.972;12.794;2022-12-18T17:50:48;24.73;;;14.50;;
27758;SDS011;15148;48.972;12.794;2022-12-18T17:55:56;28.15;;;16.33;;
27758;SDS011;15148;48.972;12.794;2022-12-18T18:00:59;26.83;;;14.57;;
27758;SDS011;15148;48.972;12.794;2022-12-18T18:06:01;27.38;;;14.50;;
27758;SDS011;15148;48.972;12.794;2022-12-18T18:11:08;25.65;;;12.77;;
27758;SDS011;15148;48.972;12.794;2022-12-18T18:16:37;23.17;;;13.48;;
27758;SDS011;15148;48.972;12.794;2022-12-18T18:21:44;25.65;;;13.60;;
27758;SDS011;15148;48.972;12.794;2022-12-18T18:26:48;22.35;;;12.52;;
27758;SDS011;15148;48.972;12.794;2022-12-18T18:31:50;23.17;;;13.75;;
27758;SDS011;15148;48.972;12.794;2022-12-18T18:36:52;22.48;;;12.63;;
27758;SDS011;15148;48.972;12.794;2022-12-18T18:41:54;22.05;;;12.85;;
27758;SDS011;15148;48.972;12.794;2022-12-18T18:46:56;26.77;;;13.63;;
27758;SDS011;15148;48.972;12.794;2022-12-18T18:51:58;27.42;;;14.52;;
27758;SDS011;15148;48.972;12.794;2022-12-18T18:57:00;27.58;;;14.63;;
27758;SDS011;15148;48.972;12.794;2022-12-18T19:02:22;24.65;;;13.88;;
27758;SDS011;15148;48.972;12.794;2022-12-18T19:07:26;26.92;;;14.98;;
27758;SDS011;15148;48.972;12.794;2022-12-18T19:12:31;21.33;;;13.05;;
27758;SDS011;15148;48.972;12.794;2022-12-18T19:17:55;22.85;;;13.45;;
27758;SDS011;15148;48.972;12.794;2022-12-18T19:22:57;26.75;;;14.18;;
27758;SDS011;15148;48.972;12.794;2022-12-18T19:27:59;22.10;;;13.65;;
27758;SDS011;15148;48.972;12.794;2022-12-18T19:33:00;24.63;;;14.38;;
27758;SDS011;15148;48.972;12.794;2022-12-18T19:38:22;28.08;;;16.58;;
27758;SDS011;15148;48.972;12.794;2022-12-18T19:43:24;28.02;;;15.50;;
27758;SDS011;15148;48.972;12.794;2022-12-18T19:48:26;27.73;;;15.48;;
27758;SDS011;15148;48.972;12.794;2022-12-18T19:53:28;28.17;;;15.50;;
27758;SDS011;15148;48.972;12.794;2022-12-18T19:58:30;29.00;;;16.70;;
27758;SDS011;15148;48.972;12.794;2022-12-18T20:03:32;27.48;;;15.40;;
27758;SDS011;15148;48.972;12.794;2022-12-18T20:08:34;35.88;;;21.13;;
27758;SDS011;15148;48.972;12.794;2022-12-18T20:13:36;42.35;;;25.30;;
27758;SDS011;15148;48.972;12.794;2022-12-18T20:18:38;46.67;;;26.02;;
27758;SDS011;15148;48.972;12.794;2022-12-18T20:23:40;46.63;;;26.98;;
27758;SDS011;15148;48.972;12.794;2022-12-18T20:28:43;51.22;;;29.52;;
27758;SDS011;15148;48.972;12.794;2022-12-18T20:33:45;55.13;;;30.90;;
27758;SDS011;15148;48.972;12.794;2022-12-18T20:38:49;52.28;;;27.77;;
27758;SDS011;15148;48.972;12.794;2022-12-18T20:43:58;51.63;;;30.15;;
27758;SDS011;15148;48.972;12.794;2022-12-18T20:49:00;55.58;;;30.50;;
27758;SDS011;15148;48.972;12.794;2022-12-18T20:54:03;57.30;;;29.98;;
27758;SDS011;15148;48.972;12.794;2022-12-18T20:59:11;55.63;;;30.30;;
27758;SDS011;15148;48.972;12.794;2022-12-18T21:04:13;52.42;;;30.88;;
27758;SDS011;15148;48.972;12.794;2022-12-18T21:09:17;56.22;;;31.42;;
27758;SDS011;15148;48.972;12.794;2022-12-18T21:14:21;53.13;;;30.15;;
27758;SDS011;15148;48.972;12.794;2022-12-18T21:19:25;50.75;;;29.20;;
27758;SDS011;15148;48.972;12.794;2022-12-18T21:24:28;53.03;;;30.83;;
27758;SDS011;15148;48.972;12.794;2022-12-18T21:29:33;52.75;;;30.27;;
27758;SDS011;15148;48.972;12.794;2022-12-18T21:34:35;50.30;;;29.50;;
27758;SDS011;15148;48.972;12.794;2022-12-18T21:39:37;53.50;;;28.92;;
27758;SDS011;15148;48.972;12.794;2022-12-18T21:44:39;48.13;;;24.85;;
27758;SDS011;15148;48.972;12.794;2022-12-18T21:49:42;45.25;;;26.42;;
27758;SDS011;15148;48.972;12.794;2022-12-18T21:54:44;42.63;;;24.70;;
27758;SDS011;15148;48.972;12.794;2022-12-18T21:59:46;53.88;;;28.63;;
27758;SDS011;15148;48.972;12.794;2022-12-18T22:04:49;39.10;;;23.13;;
27758;SDS011;15148;48.972;12.794;2022-12-18T22:09:51;42.70;;;24.92;;
27758;SDS011;15148;48.972;12.794;2022-12-18T22:14:53;48.15;;;25.83;;
27758;SDS011;15148;48.972;12.794;2022-12-18T22:19:55;39.85;;;22.95;;
27758;SDS011;15148;48.972;12.794;2022-12-18T22:24:56;45.60;;;25.55;;
27758;SDS011;15148;48.972;12.794;2022-12-18T22:29:58;40.28;;;23.77;;
27758;SDS011;15148;48.972;12.794;2022-12-18T22:35:06;44.40;;;23.30;;
27758;SDS011;15148;48.972;12.794;2022-12-18T22:40:20;35.70;;;21.10;;
27758;SDS011;15148;48.972;12.794;2022-12-18T22:45:26;41.60;;;21.23;;
27758;SDS011;15148;48.972;12.794;2022-12-18T22:50:28;33.75;;;20.80;;
27758;SDS011;15148;48.972;12.794;2022-12-18T22:55:30;37.25;;;21.60;;
27758;SDS011;15148;48.972;12.794;2022-12-18T23:00:31;36.38;;;19.88;;
27758;SDS011;15148;48.972;12.794;2022-12-18T23:05:33;35.30;;;21.02;;
27758;SDS011;15148;48.972;12.794;2022-12-18T23:10:36;36.10;;;20.98;;
27758;SDS011;15148;48.972;12.794;2022-12-18T23:15:42;38.92;;;21.58;;
27758;SDS011;15148;48.972;12.794;2022-12-18T23:20:43;41.55;;;22.83;;
27758;SDS011;15148;48.972;12.794;2022-12-18T23:25:46;34.92;;;20.08;;
27758;SDS011;15148;48.972;12.794;2022-12-18T23:30:48;34.22;;;20.35;;
27758;SDS011;15148;48.972;12.794;2022-12-18T23:35:50;33.55;;;20.20;;
27758;SDS011;15148;48.972;12.794;2022-12-18T23:40:52;31.52;;;19.40;;
27758;SDS011;15148;48.972;12.794;2022-12-18T23:45:59;31.63;;;18.67;;
27758;SDS011;15148;48.972;12.794;2022-12-18T23:51:10;31.35;;;20.10;;
27758;SDS011;15148;48.972;12.794;2022-12-18T23:56:13;32.25;;;19.30;;
